sensor_id;sensor_type;location;lat;lon;timestamp;pressure;altitude;pressure_sealevel;temperature;humidity
70730;BME280;58315;53.336;55.932;2022-09-17T00:02:24;99163.16;;;17.12;61.47
70730;BME280;58315;53.336;55.932;2022-09-17T00:04:50;99167.84;;;17.10;61.56
70730;BME280;58315;53.336;55.932;2022-09-17T00:07:16;99155.31;;;17.10;61.83
70730;BME280;58315;53.336;55.932;2022-09-17T00:09:43;99155.16;;;17.12;61.78
70730;BME280;58315;53.336;55.932;2022-09-17T00:12:09;99149.81;;;17.12;61.79
70730;BME280;58315;53.336;55.932;2022-09-17T00:14:35;99152.91;;;17.16;61.78
70730;BME280;58315;53.336;55.932;2022-09-17T00:17:01;99149.66;;;17.20;61.90
70730;BME280;58315;53.336;55.932;2022-09-17T00:19:27;99152.59;;;17.25;61.88
70730;BME280;58315;53.336;55.932;2022-09-17T00:21:53;99143.38;;;17.28;61.97
70730;BME280;58315;53.336;55.932;2022-09-17T00:24:20;99142.34;;;17.29;62.07
70730;BME280;58315;53.336;55.932;2022-09-17T00:26:47;99146.28;;;17.33;61.75
70730;BME280;58315;53.336;55.932;2022-09-17T00:29:13;99142.22;;;17.37;61.88
70730;BME280;58315;53.336;55.932;2022-09-17T00:31:40;99140.00;;;17.41;61.85
70730;BME280;58315;53.336;55.932;2022-09-17T00:34:06;99134.44;;;17.42;62.06
70730;BME280;58315;53.336;55.932;2022-09-17T00:36:37;99144.94;;;17.44;62.16
70730;BME280;58315;53.336;55.932;2022-09-17T00:39:05;99131.56;;;17.44;62.14
70730;BME280;58315;53.336;55.932;2022-09-17T00:41:33;99136.75;;;17.45;62.28
70730;BME280;58315;53.336;55.932;2022-09-17T00:47:07;99138.63;;;17.51;62.23
70730;BME280;58315;53.336;55.932;2022-09-17T00:49:36;99142.13;;;17.52;62.30
70730;BME280;58315;53.336;55.932;2022-09-17T00:52:08;99140.78;;;17.63;62.47
70730;BME280;58315;53.336;55.932;2022-09-17T00:54:37;99143.00;;;17.59;62.86
70730;BME280;58315;53.336;55.932;2022-09-17T00:57:04;99139.91;;;17.55;62.72
70730;BME280;58315;53.336;55.932;2022-09-17T00:59:31;99137.69;;;17.66;62.46
70730;BME280;58315;53.336;55.932;2022-09-17T01:01:57;99134.47;;;17.70;62.39
70730;BME280;58315;53.336;55.932;2022-09-17T01:04:25;99128.53;;;17.75;62.35
70730;BME280;58315;53.336;55.932;2022-09-17T01:09:44;99130.63;;;17.79;62.64
70730;BME280;58315;53.336;55.932;2022-09-17T01:31:53;99121.19;;;17.83;63.18
70730;BME280;58315;53.336;55.932;2022-09-17T01:34:33;99118.38;;;17.92;63.41
70730;BME280;58315;53.336;55.932;2022-09-17T01:37:05;99124.69;;;17.84;63.49
70730;BME280;58315;53.336;55.932;2022-09-17T01:44:49;99127.78;;;17.88;63.98
70730;BME280;58315;53.336;55.932;2022-09-17T01:47:48;99124.19;;;18.02;63.96
70730;BME280;58315;53.336;55.932;2022-09-17T01:50:15;99117.97;;;17.95;64.53
70730;BME280;58315;53.336;55.932;2022-09-17T01:52:44;99123.09;;;17.90;64.57
70730;BME280;58315;53.336;55.932;2022-09-17T01:55:15;99117.91;;;17.81;65.03
70730;BME280;58315;53.336;55.932;2022-09-17T01:57:50;99110.75;;;17.89;65.06
70730;BME280;58315;53.336;55.932;2022-09-17T02:00:18;99111.53;;;17.82;65.20
70730;BME280;58315;53.336;55.932;2022-09-17T02:02:46;99123.47;;;17.87;65.09
70730;BME280;58315;53.336;55.932;2022-09-17T02:05:25;99125.59;;;17.98;65.30
70730;BME280;58315;53.336;55.932;2022-09-17T02:10:34;99117.53;;;17.91;65.63
70730;BME280;58315;53.336;55.932;2022-09-17T02:13:15;99133.63;;;17.98;65.44
70730;BME280;58315;53.336;55.932;2022-09-17T02:16:05;99124.44;;;18.07;65.13
70730;BME280;58315;53.336;55.932;2022-09-17T02:21:46;99132.06;;;18.10;65.29
70730;BME280;58315;53.336;55.932;2022-09-17T02:26:57;99118.84;;;18.02;65.66
70730;BME280;58315;53.336;55.932;2022-09-17T02:29:37;99125.38;;;17.93;66.04
70730;BME280;58315;53.336;55.932;2022-09-17T02:32:04;99126.94;;;17.80;66.23
70730;BME280;58315;53.336;55.932;2022-09-17T02:34:31;99124.47;;;17.79;66.38
70730;BME280;58315;53.336;55.932;2022-09-17T02:36:57;99122.81;;;17.78;66.30
70730;BME280;58315;53.336;55.932;2022-09-17T02:39:25;99118.47;;;17.77;66.56
70730;BME280;58315;53.336;55.932;2022-09-17T02:42:08;99117.47;;;17.78;66.71
70730;BME280;58315;53.336;55.932;2022-09-17T02:55:21;99119.00;;;17.94;66.44
70730;BME280;58315;53.336;55.932;2022-09-17T03:00:29;99129.69;;;17.94;66.36
70730;BME280;58315;53.336;55.932;2022-09-17T03:03:09;99126.25;;;18.00;66.41
70730;BME280;58315;53.336;55.932;2022-09-17T03:05:38;99122.44;;;17.81;66.92
70730;BME280;58315;53.336;55.932;2022-09-17T03:08:08;99126.16;;;17.87;67.00
70730;BME280;58315;53.336;55.932;2022-09-17T03:10:34;99131.50;;;17.87;66.95
70730;BME280;58315;53.336;55.932;2022-09-17T03:13:00;99125.72;;;17.83;67.14
70730;BME280;58315;53.336;55.932;2022-09-17T03:15:26;99135.38;;;17.84;67.13
70730;BME280;58315;53.336;55.932;2022-09-17T03:17:52;99129.09;;;17.92;66.98
70730;BME280;58315;53.336;55.932;2022-09-17T03:20:19;99130.72;;;17.93;66.82
70730;BME280;58315;53.336;55.932;2022-09-17T03:22:45;99127.44;;;17.97;66.82
70730;BME280;58315;53.336;55.932;2022-09-17T03:25:12;99125.41;;;17.99;66.71
70730;BME280;58315;53.336;55.932;2022-09-17T03:27:38;99123.75;;;17.98;66.85
70730;BME280;58315;53.336;55.932;2022-09-17T03:30:05;99120.25;;;17.98;66.86
70730;BME280;58315;53.336;55.932;2022-09-17T03:32:32;99119.22;;;17.99;66.92
70730;BME280;58315;53.336;55.932;2022-09-17T03:34:58;99118.44;;;18.05;66.68
70730;BME280;58315;53.336;55.932;2022-09-17T03:37:24;99124.88;;;18.11;66.48
70730;BME280;58315;53.336;55.932;2022-09-17T03:39:50;99120.94;;;18.13;66.36
70730;BME280;58315;53.336;55.932;2022-09-17T03:42:16;99118.53;;;18.18;66.47
70730;BME280;58315;53.336;55.932;2022-09-17T03:44:42;99116.19;;;18.08;66.56
70730;BME280;58315;53.336;55.932;2022-09-17T03:47:08;99119.31;;;18.12;66.72
70730;BME280;58315;53.336;55.932;2022-09-17T03:49:37;99118.69;;;18.17;66.75
70730;BME280;58315;53.336;55.932;2022-09-17T03:52:03;99113.56;;;18.15;66.70
70730;BME280;58315;53.336;55.932;2022-09-17T03:54:29;99111.50;;;18.11;66.92
70730;BME280;58315;53.336;55.932;2022-09-17T03:56:55;99117.50;;;18.19;66.95
70730;BME280;58315;53.336;55.932;2022-09-17T03:59:21;99115.16;;;18.10;67.12
70730;BME280;58315;53.336;55.932;2022-09-17T04:01:47;99117.22;;;18.07;67.22
70730;BME280;58315;53.336;55.932;2022-09-17T04:04:13;99112.66;;;18.01;67.56
70730;BME280;58315;53.336;55.932;2022-09-17T04:06:39;99119.22;;;17.99;67.73
70730;BME280;58315;53.336;55.932;2022-09-17T04:09:05;99120.63;;;17.88;68.16
70730;BME280;58315;53.336;55.932;2022-09-17T04:11:31;99122.72;;;17.93;68.19
70730;BME280;58315;53.336;55.932;2022-09-17T04:13:57;99116.97;;;17.96;68.22
70730;BME280;58315;53.336;55.932;2022-09-17T04:16:23;99118.00;;;18.01;68.15
70730;BME280;58315;53.336;55.932;2022-09-17T04:18:49;99115.31;;;17.95;68.10
70730;BME280;58315;53.336;55.932;2022-09-17T04:21:15;99122.56;;;18.07;67.82
70730;BME280;58315;53.336;55.932;2022-09-17T04:23:41;99130.34;;;18.02;68.08
70730;BME280;58315;53.336;55.932;2022-09-17T04:26:07;99113.75;;;18.07;67.96
70730;BME280;58315;53.336;55.932;2022-09-17T04:28:33;99113.50;;;18.02;68.16
70730;BME280;58315;53.336;55.932;2022-09-17T04:30:59;99110.44;;;18.05;68.21
70730;BME280;58315;53.336;55.932;2022-09-17T04:33:25;99111.63;;;18.02;68.17
70730;BME280;58315;53.336;55.932;2022-09-17T04:35:51;99113.78;;;18.14;68.01
70730;BME280;58315;53.336;55.932;2022-09-17T04:38:18;99101.63;;;18.11;68.01
70730;BME280;58315;53.336;55.932;2022-09-17T04:40:45;99111.31;;;18.19;67.76
70730;BME280;58315;53.336;55.932;2022-09-17T04:43:12;99107.81;;;18.18;67.79
70730;BME280;58315;53.336;55.932;2022-09-17T04:45:38;99095.06;;;18.20;67.73
70730;BME280;58315;53.336;55.932;2022-09-17T04:48:04;99104.16;;;18.26;67.85
70730;BME280;58315;53.336;55.932;2022-09-17T04:50:30;99109.69;;;18.24;67.70
70730;BME280;58315;53.336;55.932;2022-09-17T04:52:56;99115.00;;;18.11;68.12
70730;BME280;58315;53.336;55.932;2022-09-17T04:55:22;99115.22;;;18.16;68.38
70730;BME280;58315;53.336;55.932;2022-09-17T04:57:50;99113.59;;;18.22;68.18
70730;BME280;58315;53.336;55.932;2022-09-17T05:00:18;99117.53;;;18.26;68.15
70730;BME280;58315;53.336;55.932;2022-09-17T05:02:48;99118.34;;;18.26;68.20
70730;BME280;58315;53.336;55.932;2022-09-17T05:05:16;99119.81;;;18.29;68.06
70730;BME280;58315;53.336;55.932;2022-09-17T05:07:42;99122.91;;;18.33;67.80
70730;BME280;58315;53.336;55.932;2022-09-17T05:10:09;99113.78;;;18.20;68.25
70730;BME280;58315;53.336;55.932;2022-09-17T05:12:36;99117.50;;;18.19;68.35
70730;BME280;58315;53.336;55.932;2022-09-17T05:15:02;99123.25;;;18.23;68.27
70730;BME280;58315;53.336;55.932;2022-09-17T05:17:29;99115.66;;;18.26;68.22
70730;BME280;58315;53.336;55.932;2022-09-17T05:19:56;99118.97;;;18.35;68.12
70730;BME280;58315;53.336;55.932;2022-09-17T05:22:22;99116.13;;;18.37;68.00
70730;BME280;58315;53.336;55.932;2022-09-17T05:24:48;99120.06;;;18.41;67.91
70730;BME280;58315;53.336;55.932;2022-09-17T05:27:14;99123.56;;;18.48;67.70
70730;BME280;58315;53.336;55.932;2022-09-17T05:29:40;99123.91;;;18.31;67.88
70730;BME280;58315;53.336;55.932;2022-09-17T05:32:06;99112.38;;;18.31;68.11
70730;BME280;58315;53.336;55.932;2022-09-17T05:34:32;99122.09;;;18.39;67.90
70730;BME280;58315;53.336;55.932;2022-09-17T05:36:58;99124.13;;;18.30;68.12
70730;BME280;58315;53.336;55.932;2022-09-17T05:39:24;99131.13;;;18.38;67.85
70730;BME280;58315;53.336;55.932;2022-09-17T05:41:51;99133.28;;;18.55;67.43
70730;BME280;58315;53.336;55.932;2022-09-17T05:44:20;99126.56;;;18.73;67.11
70730;BME280;58315;53.336;55.932;2022-09-17T05:46:47;99122.06;;;18.80;66.51
70730;BME280;58315;53.336;55.932;2022-09-17T05:49:13;99132.94;;;18.78;66.50
70730;BME280;58315;53.336;55.932;2022-09-17T05:51:41;99128.66;;;18.91;66.13
70730;BME280;58315;53.336;55.932;2022-09-17T05:54:10;99124.16;;;18.98;66.10
70730;BME280;58315;53.336;55.932;2022-09-17T05:56:35;99128.03;;;18.95;65.97
70730;BME280;58315;53.336;55.932;2022-09-17T05:59:01;99132.34;;;18.90;66.04
70730;BME280;58315;53.336;55.932;2022-09-17T06:01:28;99126.16;;;18.83;66.36
70730;BME280;58315;53.336;55.932;2022-09-17T06:03:54;99131.13;;;18.92;66.28
70730;BME280;58315;53.336;55.932;2022-09-17T06:06:20;99136.06;;;18.95;66.18
70730;BME280;58315;53.336;55.932;2022-09-17T06:08:48;99136.06;;;18.89;66.40
70730;BME280;58315;53.336;55.932;2022-09-17T06:11:15;99134.41;;;18.88;66.43
70730;BME280;58315;53.336;55.932;2022-09-17T06:13:44;99141.44;;;18.95;66.32
70730;BME280;58315;53.336;55.932;2022-09-17T06:16:10;99138.97;;;19.00;66.36
70730;BME280;58315;53.336;55.932;2022-09-17T06:18:36;99134.66;;;19.06;66.13
70730;BME280;58315;53.336;55.932;2022-09-17T06:21:03;99143.72;;;19.18;65.98
70730;BME280;58315;53.336;55.932;2022-09-17T06:23:36;99134.44;;;19.34;65.97
70730;BME280;58315;53.336;55.932;2022-09-17T06:26:04;99133.22;;;19.37;65.59
70730;BME280;58315;53.336;55.932;2022-09-17T06:28:31;99134.66;;;19.33;65.80
70730;BME280;58315;53.336;55.932;2022-09-17T06:31:02;99135.28;;;19.35;65.83
70730;BME280;58315;53.336;55.932;2022-09-17T06:33:29;99128.91;;;19.29;65.87
70730;BME280;58315;53.336;55.932;2022-09-17T06:36:01;99131.59;;;19.42;65.50
70730;BME280;58315;53.336;55.932;2022-09-17T06:38:29;99130.13;;;19.40;65.67
70730;BME280;58315;53.336;55.932;2022-09-17T06:40:56;99135.06;;;19.36;65.80
70730;BME280;58315;53.336;55.932;2022-09-17T06:43:22;99136.53;;;19.39;65.85
70730;BME280;58315;53.336;55.932;2022-09-17T06:45:56;99130.31;;;19.58;65.56
70730;BME280;58315;53.336;55.932;2022-09-17T06:48:23;99132.78;;;19.60;65.60
70730;BME280;58315;53.336;55.932;2022-09-17T06:50:50;99131.59;;;19.69;65.52
70730;BME280;58315;53.336;55.932;2022-09-17T06:53:16;99132.59;;;19.61;65.48
70730;BME280;58315;53.336;55.932;2022-09-17T06:55:45;99133.81;;;19.59;65.66
70730;BME280;58315;53.336;55.932;2022-09-17T06:58:11;99138.16;;;19.60;65.43
70730;BME280;58315;53.336;55.932;2022-09-17T07:00:37;99144.53;;;19.52;65.92
70730;BME280;58315;53.336;55.932;2022-09-17T07:03:03;99134.69;;;19.52;65.63
70730;BME280;58315;53.336;55.932;2022-09-17T07:05:30;99144.34;;;19.73;65.37
70730;BME280;58315;53.336;55.932;2022-09-17T07:08:00;99146.81;;;19.88;64.98
70730;BME280;58315;53.336;55.932;2022-09-17T07:10:28;99144.34;;;19.87;64.69
70730;BME280;58315;53.336;55.932;2022-09-17T07:12:54;99143.53;;;19.93;64.53
70730;BME280;58315;53.336;55.932;2022-09-17T07:15:21;99145.97;;;19.94;64.19
70730;BME280;58315;53.336;55.932;2022-09-17T07:17:46;99136.31;;;19.73;64.65
70730;BME280;58315;53.336;55.932;2022-09-17T07:20:13;99138.56;;;19.83;64.34
70730;BME280;58315;53.336;55.932;2022-09-17T07:22:39;99143.13;;;19.83;64.41
70730;BME280;58315;53.336;55.932;2022-09-17T07:25:05;99155.47;;;19.90;64.33
70730;BME280;58315;53.336;55.932;2022-09-17T07:27:32;99157.13;;;19.85;64.53
70730;BME280;58315;53.336;55.932;2022-09-17T07:29:58;99149.47;;;19.95;64.18
70730;BME280;58315;53.336;55.932;2022-09-17T07:32:24;99148.06;;;19.86;64.57
70730;BME280;58315;53.336;55.932;2022-09-17T07:34:53;99156.53;;;19.83;64.65
70730;BME280;58315;53.336;55.932;2022-09-17T07:37:19;99153.03;;;19.82;64.88
70730;BME280;58315;53.336;55.932;2022-09-17T07:39:46;99142.88;;;19.91;64.72
70730;BME280;58315;53.336;55.932;2022-09-17T07:42:12;99151.56;;;19.86;64.83
70730;BME280;58315;53.336;55.932;2022-09-17T07:44:38;99154.25;;;19.86;65.41
70730;BME280;58315;53.336;55.932;2022-09-17T07:47:04;99151.16;;;19.89;65.00
70730;BME280;58315;53.336;55.932;2022-09-17T07:49:30;99160.44;;;19.87;64.94
70730;BME280;58315;53.336;55.932;2022-09-17T07:51:56;99161.66;;;19.84;65.00
70730;BME280;58315;53.336;55.932;2022-09-17T07:54:24;99160.19;;;19.95;64.79
70730;BME280;58315;53.336;55.932;2022-09-17T07:56:50;99166.38;;;19.95;65.02
70730;BME280;58315;53.336;55.932;2022-09-17T07:59:16;99166.56;;;20.07;64.88
70730;BME280;58315;53.336;55.932;2022-09-17T08:01:42;99166.38;;;19.95;64.69
70730;BME280;58315;53.336;55.932;2022-09-17T08:04:08;99157.94;;;19.92;64.87
70730;BME280;58315;53.336;55.932;2022-09-17T08:06:37;99161.19;;;20.07;64.82
70730;BME280;58315;53.336;55.932;2022-09-17T08:09:05;99160.19;;;20.08;64.56
70730;BME280;58315;53.336;55.932;2022-09-17T08:11:32;99164.91;;;20.06;64.45
70730;BME280;58315;53.336;55.932;2022-09-17T08:13:57;99158.75;;;19.99;64.62
70730;BME280;58315;53.336;55.932;2022-09-17T08:16:24;99159.56;;;20.06;64.66
70730;BME280;58315;53.336;55.932;2022-09-17T08:18:55;99160.38;;;20.07;64.40
70730;BME280;58315;53.336;55.932;2022-09-17T08:21:22;99171.97;;;20.01;64.68
70730;BME280;58315;53.336;55.932;2022-09-17T08:23:49;99172.38;;;20.04;64.32
70730;BME280;58315;53.336;55.932;2022-09-17T08:26:20;99169.88;;;20.09;64.26
70730;BME280;58315;53.336;55.932;2022-09-17T08:28:49;99173.19;;;20.11;63.87
70730;BME280;58315;53.336;55.932;2022-09-17T08:31:17;99169.88;;;19.96;64.10
70730;BME280;58315;53.336;55.932;2022-09-17T08:33:44;99171.97;;;19.94;64.33
70730;BME280;58315;53.336;55.932;2022-09-17T08:36:13;99165.38;;;19.90;63.80
70730;BME280;58315;53.336;55.932;2022-09-17T08:38:40;99179.41;;;19.79;63.76
70730;BME280;58315;53.336;55.932;2022-09-17T08:46:48;99186.22;;;19.68;63.85
70730;BME280;58315;53.336;55.932;2022-09-17T09:00:14;99190.13;;;19.45;64.33
70730;BME280;58315;53.336;55.932;2022-09-17T09:03:07;99193.19;;;19.56;63.81
70730;BME280;58315;53.336;55.932;2022-09-17T09:05:50;99190.94;;;19.59;63.74
70730;BME280;58315;53.336;55.932;2022-09-17T09:10:52;99189.09;;;19.73;63.24
70730;BME280;58315;53.336;55.932;2022-09-17T09:13:22;99192.59;;;19.73;63.02
70730;BME280;58315;53.336;55.932;2022-09-17T09:15:59;99190.34;;;19.84;63.02
70730;BME280;58315;53.336;55.932;2022-09-17T09:18:34;99192.38;;;19.88;63.01
70730;BME280;58315;53.336;55.932;2022-09-17T09:24:15;99200.00;;;19.78;63.29
70730;BME280;58315;53.336;55.932;2022-09-17T09:26:46;99208.69;;;19.73;63.50
70730;BME280;58315;53.336;55.932;2022-09-17T09:35:11;99193.19;;;19.95;63.39
70730;BME280;58315;53.336;55.932;2022-09-17T09:37:45;99208.28;;;19.77;63.78
70730;BME280;58315;53.336;55.932;2022-09-17T09:43:47;99208.03;;;19.58;64.21
70730;BME280;58315;53.336;55.932;2022-09-17T09:52:19;99226.41;;;19.61;64.35
70730;BME280;58315;53.336;55.932;2022-09-17T09:55:18;99227.22;;;19.62;64.18
70730;BME280;58315;53.336;55.932;2022-09-17T09:57:52;99221.91;;;19.68;64.19
70730;BME280;58315;53.336;55.932;2022-09-17T10:00:29;99227.22;;;19.82;63.94
70730;BME280;58315;53.336;55.932;2022-09-17T10:05:34;99229.53;;;19.71;63.95
70730;BME280;58315;53.336;55.932;2022-09-17T10:08:10;99222.72;;;19.82;63.88
70730;BME280;58315;53.336;55.932;2022-09-17T10:11:00;99225.19;;;19.84;63.65
70730;BME280;58315;53.336;55.932;2022-09-17T10:13:29;99225.19;;;19.77;63.69
70730;BME280;58315;53.336;55.932;2022-09-17T10:15:55;99232.63;;;19.68;63.96
70730;BME280;58315;53.336;55.932;2022-09-17T10:18:24;99228.91;;;19.69;63.77
70730;BME280;58315;53.336;55.932;2022-09-17T10:20:56;99232.19;;;19.85;63.87
70730;BME280;58315;53.336;55.932;2022-09-17T10:23:24;99233.41;;;19.89;63.68
70730;BME280;58315;53.336;55.932;2022-09-17T10:25:52;99233.22;;;19.84;63.61
70730;BME280;58315;53.336;55.932;2022-09-17T10:28:36;99229.50;;;19.85;63.58
70730;BME280;58315;53.336;55.932;2022-09-17T10:31:08;99236.75;;;19.71;64.11
70730;BME280;58315;53.336;55.932;2022-09-17T10:33:49;99228.50;;;19.72;64.17
70730;BME280;58315;53.336;55.932;2022-09-17T10:36:34;99235.28;;;19.68;64.47
70730;BME280;58315;53.336;55.932;2022-09-17T10:44:22;99232.41;;;19.77;64.11
70730;BME280;58315;53.336;55.932;2022-09-17T10:46:50;99235.50;;;19.73;64.31
70730;BME280;58315;53.336;55.932;2022-09-17T10:49:39;99232.63;;;19.68;64.30
70730;BME280;58315;53.336;55.932;2022-09-17T10:57:56;99229.31;;;19.73;64.81
70730;BME280;58315;53.336;55.932;2022-09-17T11:00:32;99235.88;;;19.57;64.89
70730;BME280;58315;53.336;55.932;2022-09-17T11:06:12;99233.81;;;19.46;65.13
70730;BME280;58315;53.336;55.932;2022-09-17T11:25:50;99250.66;;;19.33;65.67
70730;BME280;58315;53.336;55.932;2022-09-17T11:42:08;99249.09;;;19.65;64.85
70730;BME280;58315;53.336;55.932;2022-09-17T11:44:52;99257.16;;;19.72;64.65
70730;BME280;58315;53.336;55.932;2022-09-17T11:47:32;99251.97;;;19.70;64.42
70730;BME280;58315;53.336;55.932;2022-09-17T11:50:08;99263.97;;;19.74;64.59
70730;BME280;58315;53.336;55.932;2022-09-17T11:52:37;99263.97;;;19.68;64.28
70730;BME280;58315;53.336;55.932;2022-09-17T11:57:43;99258.38;;;19.69;64.55
70730;BME280;58315;53.336;55.932;2022-09-17T12:00:15;99264.78;;;19.68;64.43
70730;BME280;58315;53.336;55.932;2022-09-17T12:05:55;99260.25;;;19.69;64.78
70730;BME280;58315;53.336;55.932;2022-09-17T12:08:33;99261.47;;;19.66;64.79
70730;BME280;58315;53.336;55.932;2022-09-17T12:11:26;99264.78;;;19.68;64.70
70730;BME280;58315;53.336;55.932;2022-09-17T12:14:07;99266.41;;;19.69;64.88
70730;BME280;58315;53.336;55.932;2022-09-17T12:16:39;99264.72;;;19.62;64.96
70730;BME280;58315;53.336;55.932;2022-09-17T12:21:53;99263.47;;;19.44;65.15
70730;BME280;58315;53.336;55.932;2022-09-17T12:24:29;99272.56;;;19.57;65.44
70730;BME280;58315;53.336;55.932;2022-09-17T12:37:59;99285.31;;;19.35;65.87
70730;BME280;58315;53.336;55.932;2022-09-17T12:40:41;99291.06;;;19.45;65.85
70730;BME280;58315;53.336;55.932;2022-09-17T12:51:57;99303.41;;;19.26;66.46
70730;BME280;58315;53.336;55.932;2022-09-17T13:00:09;99298.47;;;19.30;66.14
70730;BME280;58315;53.336;55.932;2022-09-17T13:03:12;99299.34;;;19.50;65.95
70730;BME280;58315;53.336;55.932;2022-09-17T13:17:04;99299.31;;;19.37;65.98
70730;BME280;58315;53.336;55.932;2022-09-17T13:22:05;99308.72;;;19.19;66.71
70730;BME280;58315;53.336;55.932;2022-09-17T13:24:35;99319.06;;;19.29;66.56
70730;BME280;58315;53.336;55.932;2022-09-17T13:27:03;99331.88;;;19.40;66.28
70730;BME280;58315;53.336;55.932;2022-09-17T13:42:51;99333.03;;;19.18;66.91
70730;BME280;58315;53.336;55.932;2022-09-17T13:45:20;99346.91;;;19.28;66.82
70730;BME280;58315;53.336;55.932;2022-09-17T13:52:54;99348.66;;;19.08;67.17
70730;BME280;58315;53.336;55.932;2022-09-17T13:55:34;99342.28;;;19.09;67.33
70730;BME280;58315;53.336;55.932;2022-09-17T14:13:49;99347.63;;;19.02;67.00
70730;BME280;58315;53.336;55.932;2022-09-17T14:24:33;99353.66;;;19.17;66.47
70730;BME280;58315;53.336;55.932;2022-09-17T14:32:17;99352.22;;;19.21;66.46
70730;BME280;58315;53.336;55.932;2022-09-17T14:34:46;99360.91;;;19.23;66.22
70730;BME280;58315;53.336;55.932;2022-09-17T14:37:16;99364.56;;;19.22;66.36
70730;BME280;58315;53.336;55.932;2022-09-17T14:39:44;99364.13;;;19.12;66.43
70730;BME280;58315;53.336;55.932;2022-09-17T14:42:24;99370.31;;;19.19;66.48
70730;BME280;58315;53.336;55.932;2022-09-17T14:44:59;99370.16;;;19.21;66.42
70730;BME280;58315;53.336;55.932;2022-09-17T14:47:25;99368.22;;;19.08;66.65
70730;BME280;58315;53.336;55.932;2022-09-17T14:49:52;99371.75;;;19.09;66.64
70730;BME280;58315;53.336;55.932;2022-09-17T14:52:29;99371.75;;;19.15;66.29
70730;BME280;58315;53.336;55.932;2022-09-17T14:57:36;99371.31;;;19.05;66.51
70730;BME280;58315;53.336;55.932;2022-09-17T15:00:03;99366.97;;;19.04;66.25
70730;BME280;58315;53.336;55.932;2022-09-17T15:02:39;99373.00;;;19.13;66.39
70730;BME280;58315;53.336;55.932;2022-09-17T15:05:32;99368.47;;;19.13;66.25
70730;BME280;58315;53.336;55.932;2022-09-17T15:08:13;99369.28;;;19.14;66.37
70730;BME280;58315;53.336;55.932;2022-09-17T15:13:18;99372.97;;;19.06;66.35
70730;BME280;58315;53.336;55.932;2022-09-17T15:15:55;99377.31;;;19.14;66.01
70730;BME280;58315;53.336;55.932;2022-09-17T15:18:32;99374.44;;;19.09;66.27
70730;BME280;58315;53.336;55.932;2022-09-17T15:21:05;99388.38;;;19.04;66.49
70730;BME280;58315;53.336;55.932;2022-09-17T15:23:36;99388.00;;;19.07;66.34
70730;BME280;58315;53.336;55.932;2022-09-17T15:26:03;99383.66;;;19.06;66.23
70730;BME280;58315;53.336;55.932;2022-09-17T15:28:35;99380.44;;;19.17;66.20
70730;BME280;58315;53.336;55.932;2022-09-17T15:31:12;99384.06;;;19.03;66.21
70730;BME280;58315;53.336;55.932;2022-09-17T15:33:40;99381.13;;;18.91;66.75
70730;BME280;58315;53.336;55.932;2022-09-17T15:36:24;99387.78;;;19.02;66.90
70730;BME280;58315;53.336;55.932;2022-09-17T15:38:52;99381.81;;;19.07;66.47
70730;BME280;58315;53.336;55.932;2022-09-17T15:41:30;99400.66;;;19.26;66.47
70730;BME280;58315;53.336;55.932;2022-09-17T15:46:38;99398.09;;;19.05;66.60
70730;BME280;58315;53.336;55.932;2022-09-17T15:49:31;99399.19;;;19.17;66.53
70730;BME280;58315;53.336;55.932;2022-09-17T15:54:50;99411.47;;;19.05;66.54
70730;BME280;58315;53.336;55.932;2022-09-17T15:57:16;99415.81;;;19.06;66.37
70730;BME280;58315;53.336;55.932;2022-09-17T15:59:43;99415.00;;;19.12;66.38
70730;BME280;58315;53.336;55.932;2022-09-17T16:02:25;99412.66;;;19.31;65.96
70730;BME280;58315;53.336;55.932;2022-09-17T16:07:37;99415.72;;;19.34;65.53
70730;BME280;58315;53.336;55.932;2022-09-17T16:10:04;99415.94;;;19.33;65.55
70730;BME280;58315;53.336;55.932;2022-09-17T16:12:30;99417.13;;;19.23;65.97
70730;BME280;58315;53.336;55.932;2022-09-17T16:14:58;99420.63;;;19.24;65.99
70730;BME280;58315;53.336;55.932;2022-09-17T16:20:15;99422.50;;;19.30;65.90
70730;BME280;58315;53.336;55.932;2022-09-17T16:22:45;99413.44;;;19.24;65.90
70730;BME280;58315;53.336;55.932;2022-09-17T16:25:13;99415.00;;;19.12;66.20
70730;BME280;58315;53.336;55.932;2022-09-17T16:27:50;99420.34;;;19.12;66.17
70730;BME280;58315;53.336;55.932;2022-09-17T16:30:20;99422.19;;;19.05;66.27
70730;BME280;58315;53.336;55.932;2022-09-17T16:32:47;99425.69;;;19.12;66.43
70730;BME280;58315;53.336;55.932;2022-09-17T16:35:14;99431.53;;;19.22;66.04
70730;BME280;58315;53.336;55.932;2022-09-17T16:37:41;99433.34;;;19.15;65.92
70730;BME280;58315;53.336;55.932;2022-09-17T16:40:10;99429.09;;;19.27;66.13
70730;BME280;58315;53.336;55.932;2022-09-17T16:42:36;99427.47;;;19.33;66.05
70730;BME280;58315;53.336;55.932;2022-09-17T16:45:03;99428.72;;;19.37;65.57
70730;BME280;58315;53.336;55.932;2022-09-17T16:47:33;99423.22;;;19.45;65.72
70730;BME280;58315;53.336;55.932;2022-09-17T16:50:21;99422.53;;;19.37;65.69
70730;BME280;58315;53.336;55.932;2022-09-17T16:52:48;99414.69;;;19.28;65.66
70730;BME280;58315;53.336;55.932;2022-09-17T16:55:16;99413.31;;;19.46;65.24
70730;BME280;58315;53.336;55.932;2022-09-17T16:57:42;99425.03;;;19.45;64.98
70730;BME280;58315;53.336;55.932;2022-09-17T17:00:10;99425.03;;;19.45;65.00
70730;BME280;58315;53.336;55.932;2022-09-17T17:02:54;99423.47;;;19.57;64.88
70730;BME280;58315;53.336;55.932;2022-09-17T17:05:40;99419.28;;;19.48;64.65
70730;BME280;58315;53.336;55.932;2022-09-17T17:08:07;99423.00;;;19.47;64.83
70730;BME280;58315;53.336;55.932;2022-09-17T17:10:34;99422.63;;;19.57;64.73
70730;BME280;58315;53.336;55.932;2022-09-17T17:13:00;99423.06;;;19.60;64.62
70730;BME280;58315;53.336;55.932;2022-09-17T17:15:26;99422.28;;;19.66;64.66